createdAt,value
2022-11-12T00:00:12.036Z,82.40
2022-11-12T00:01:15.032Z,82.33
2022-11-12T00:02:16.618Z,82.50
2022-11-12T00:03:21.069Z,82.43
2022-11-12T00:04:22.587Z,82.51
2022-11-12T00:05:25.220Z,82.48
2022-11-12T00:06:26.822Z,82.62
2022-11-12T00:07:29.321Z,82.59
2022-11-12T00:08:30.895Z,82.73
2022-11-12T00:09:33.390Z,82.67
2022-11-12T00:10:36.051Z,82.68
2022-11-12T00:11:38.527Z,82.61
2022-11-12T00:12:40.045Z,82.58
2022-11-12T00:13:42.537Z,82.69
2022-11-12T00:14:44.032Z,82.77
2022-11-12T00:15:47.041Z,82.88
2022-11-12T00:16:48.576Z,82.74
2022-11-12T00:17:51.372Z,82.97
2022-11-12T00:18:54.271Z,82.91
2022-11-12T00:19:56.928Z,82.93
2022-11-12T00:20:58.478Z,82.76
2022-11-12T00:22:01.004Z,82.99
2022-11-12T00:23:03.001Z,82.98
2022-11-12T00:24:06.057Z,83.01
2022-11-12T00:25:08.408Z,82.92
2022-11-12T00:26:10.890Z,83.09
2022-11-12T00:27:12.442Z,82.89
2022-11-12T00:28:14.969Z,82.93
2022-11-12T00:29:16.523Z,83.01
2022-11-12T00:30:19.443Z,82.88
2022-11-12T00:31:20.977Z,82.80
2022-11-12T00:32:23.489Z,83.01
2022-11-12T00:33:25.042Z,83.07
2022-11-12T00:34:28.909Z,83.05
2022-11-12T00:35:31.893Z,82.97
2022-11-12T00:36:34.931Z,82.97
2022-11-12T00:37:36.539Z,82.92
2022-11-12T00:38:39.076Z,82.96
2022-11-12T00:39:40.571Z,83.12
2022-11-12T00:40:43.088Z,82.90
2022-11-12T00:41:44.719Z,83.02
2022-11-12T00:42:47.263Z,83.08
2022-11-12T00:43:48.804Z,82.89
2022-11-12T00:44:51.504Z,82.99
2022-11-12T00:45:53.017Z,82.99
2022-11-12T00:46:55.546Z,82.95
2022-11-12T00:47:57.388Z,83.16
2022-11-12T00:49:01.622Z,83.10
2022-11-12T00:50:05.573Z,83.23
2022-11-12T00:51:08.056Z,83.16
2022-11-12T00:52:09.574Z,83.21
2022-11-12T00:53:12.094Z,83.07
2022-11-12T00:54:13.708Z,82.98
2022-11-12T00:55:16.392Z,83.11
2022-11-12T00:56:17.914Z,83.23
2022-11-12T00:57:20.431Z,83.12
2022-11-12T00:58:22.044Z,83.01
2022-11-12T00:59:24.589Z,83.22
2022-11-12T01:00:27.132Z,83.13
2022-11-12T01:01:29.683Z,83.17
2022-11-12T01:02:31.261Z,83.30
2022-11-12T01:03:33.784Z,83.12
2022-11-12T01:04:35.322Z,82.98
2022-11-12T01:05:39.149Z,82.97
2022-11-12T01:06:41.060Z,82.95
2022-11-12T01:07:44.019Z,83.21
2022-11-12T01:08:45.937Z,83.10
2022-11-12T01:09:48.466Z,83.21
2022-11-12T01:10:50.005Z,83.24
2022-11-12T01:11:53.506Z,83.39
2022-11-12T01:12:55.467Z,83.16
2022-11-12T01:13:59.676Z,83.21
2022-11-12T01:15:01.601Z,83.24
2022-11-12T01:16:07.097Z,83.22
2022-11-12T01:17:08.671Z,83.31
2022-11-12T01:18:11.162Z,83.30
2022-11-12T01:19:12.812Z,83.23
2022-11-12T01:20:15.335Z,83.20
2022-11-12T01:21:23.990Z,83.03
2022-11-12T01:22:26.846Z,83.16
2022-11-12T01:23:28.790Z,83.33
2022-11-12T01:24:41.287Z,83.53
2022-11-12T01:25:42.807Z,83.37
2022-11-12T01:26:45.362Z,83.25
2022-11-12T01:27:47.009Z,83.32
2022-11-12T01:28:49.980Z,83.52
2022-11-12T01:29:51.528Z,83.36
2022-11-12T01:30:54.343Z,83.46
2022-11-12T01:31:56.842Z,83.62
2022-11-12T01:32:58.366Z,83.41
2022-11-12T01:34:02.962Z,83.48
2022-11-12T01:35:05.509Z,83.33
2022-11-12T01:36:08.631Z,83.46
2022-11-12T01:37:11.605Z,83.63
2022-11-12T01:38:14.113Z,83.61
2022-11-12T01:39:15.660Z,83.63
2022-11-12T01:40:18.580Z,83.50
2022-11-12T01:41:22.497Z,83.57
2022-11-12T01:42:28.983Z,83.35
2022-11-12T01:43:30.591Z,83.43
2022-11-12T01:44:36.593Z,83.11
2022-11-12T01:45:40.398Z,83.48
2022-11-12T01:47:01.368Z,83.45
2022-11-12T01:48:03.503Z,83.47
2022-11-12T01:49:10.051Z,83.35
2022-11-12T01:50:17.504Z,83.31
2022-11-12T01:51:22.469Z,83.20
2022-11-12T01:52:31.315Z,83.06
2022-11-12T01:53:37.032Z,83.32
2022-11-12T01:54:39.533Z,83.25
2022-11-12T01:55:42.425Z,83.08
2022-11-12T01:56:44.489Z,83.04
2022-11-12T01:57:50.427Z,83.22
2022-11-12T01:58:56.455Z,83.20
2022-11-12T02:00:04.507Z,83.05
2022-11-12T02:01:07.298Z,83.24
2022-11-12T02:02:10.780Z,83.07
2022-11-12T02:03:15.754Z,82.94
2022-11-12T02:04:18.753Z,83.07
2022-11-12T02:05:22.459Z,83.21
2022-11-12T02:06:25.917Z,82.91
2022-11-12T02:07:30.947Z,82.89
2022-11-12T02:08:34.884Z,82.96
2022-11-12T02:09:37.029Z,82.93
2022-11-12T02:10:40.534Z,82.99
2022-11-12T02:11:42.060Z,82.97
2022-11-12T02:13:02.570Z,82.90
2022-11-12T02:14:05.144Z,82.84
2022-11-12T02:15:07.781Z,82.73
2022-11-12T02:16:11.863Z,82.95
2022-11-12T02:17:13.697Z,82.81
2022-11-12T02:18:16.827Z,82.87
2022-11-12T02:19:18.697Z,82.74
2022-11-12T02:20:21.793Z,82.80
2022-11-12T02:21:25.400Z,82.72
2022-11-12T02:22:27.993Z,82.63
2022-11-12T02:23:29.551Z,82.74
2022-11-12T02:24:36.766Z,82.70
2022-11-12T02:25:38.485Z,82.58
2022-11-12T02:26:45.711Z,82.36
2022-11-12T02:27:51.611Z,82.44
2022-11-12T02:28:54.127Z,82.25
2022-11-12T02:29:57.159Z,82.42
2022-11-12T02:30:58.712Z,82.21
2022-11-12T02:32:01.496Z,82.33
2022-11-12T02:33:03.844Z,82.46
2022-11-12T02:34:06.675Z,82.22
2022-11-12T02:35:08.519Z,82.22
2022-11-12T02:36:11.022Z,82.41
2022-11-12T02:37:14.043Z,82.23
2022-11-12T02:38:16.565Z,82.20
2022-11-12T02:39:18.711Z,82.48
2022-11-12T02:40:21.257Z,82.31
2022-11-12T02:41:23.273Z,82.24
2022-11-12T02:42:25.839Z,82.26
2022-11-12T02:43:27.517Z,82.19
2022-11-12T02:44:30.899Z,82.13
2022-11-12T02:45:32.447Z,82.19
2022-11-12T02:46:34.940Z,82.19
2022-11-12T02:47:36.698Z,82.02
2022-11-12T02:48:39.328Z,82.21
2022-11-12T02:49:40.833Z,81.87
2022-11-12T02:50:43.323Z,81.72
2022-11-12T02:51:45.112Z,81.73
2022-11-12T02:52:48.950Z,81.64
2022-11-12T02:53:50.502Z,81.64
2022-11-12T02:54:55.932Z,81.53
2022-11-12T02:55:57.438Z,81.58
2022-11-12T02:56:59.954Z,81.53
2022-11-12T02:58:01.486Z,81.49
2022-11-12T02:59:04.083Z,81.41
2022-11-12T03:00:08.684Z,81.45
2022-11-12T03:01:11.626Z,81.54
2022-11-12T03:02:13.330Z,81.43
2022-11-12T03:03:15.939Z,81.35
2022-11-12T03:04:17.454Z,81.34
2022-11-12T03:05:19.969Z,81.22
2022-11-12T03:06:21.823Z,81.17
2022-11-12T03:07:24.293Z,81.22
2022-11-12T03:08:28.141Z,81.03
2022-11-12T03:09:30.898Z,81.18
2022-11-12T03:10:32.814Z,81.03
2022-11-12T03:11:35.371Z,81.01
2022-11-12T03:12:36.908Z,81.13
2022-11-12T03:13:40.042Z,80.90
2022-11-12T03:14:41.571Z,80.79
2022-11-12T03:15:44.080Z,80.79
2022-11-12T03:16:45.613Z,80.79
2022-11-12T03:17:48.408Z,80.87
2022-11-12T03:18:49.927Z,81.06
2022-11-12T03:19:52.406Z,80.83
2022-11-12T03:20:53.968Z,80.72
2022-11-12T03:21:56.663Z,80.62
2022-11-12T03:23:01.065Z,80.74
2022-11-12T03:24:05.352Z,80.60
2022-11-12T03:25:08.384Z,80.52
2022-11-12T03:26:10.956Z,80.71
2022-11-12T03:27:12.604Z,80.46
2022-11-12T03:28:17.062Z,80.45
2022-11-12T03:29:18.942Z,80.62
2022-11-12T03:30:22.716Z,80.52
2022-11-12T03:31:24.508Z,80.62
2022-11-12T03:32:27.077Z,80.53
2022-11-12T03:33:28.649Z,80.38
2022-11-12T03:34:31.112Z,80.43
2022-11-12T03:35:33.579Z,80.36
2022-11-12T03:36:36.198Z,80.64
2022-11-12T03:37:37.722Z,80.45
2022-11-12T03:38:40.229Z,80.43
2022-11-12T03:39:43.117Z,80.56
2022-11-12T03:40:45.765Z,80.64
2022-11-12T03:41:47.273Z,80.58
2022-11-12T03:42:51.821Z,80.53
2022-11-12T03:43:53.774Z,80.31
2022-11-12T03:44:56.273Z,80.40
2022-11-12T03:45:57.846Z,80.46
2022-11-12T03:47:00.362Z,80.34
2022-11-12T03:48:01.938Z,80.20
2022-11-12T03:49:04.446Z,80.32
2022-11-12T03:50:07.029Z,80.27
2022-11-12T03:51:12.154Z,80.45
2022-11-12T03:52:13.716Z,80.43
2022-11-12T03:53:16.610Z,80.25
2022-11-12T03:54:21.631Z,80.49
2022-11-12T03:55:28.830Z,80.27
2022-11-12T03:56:30.362Z,80.26
2022-11-12T03:57:33.278Z,80.17
2022-11-12T03:58:34.850Z,80.42
2022-11-12T03:59:44.664Z,80.18
2022-11-12T04:00:46.247Z,80.41
2022-11-12T04:01:48.854Z,80.27
2022-11-12T04:02:50.710Z,80.02
2022-11-12T04:03:53.315Z,80.30
2022-11-12T04:05:13.373Z,80.31
2022-11-12T04:06:32.792Z,80.21
2022-11-12T04:07:52.618Z,80.16
2022-11-12T04:08:55.080Z,80.16
2022-11-12T04:09:56.618Z,80.33
2022-11-12T04:10:59.829Z,80.51
2022-11-12T04:12:23.561Z,80.26
2022-11-12T04:13:28.029Z,80.32
2022-11-12T04:14:29.533Z,80.22
2022-11-12T04:15:32.485Z,80.31
2022-11-12T04:16:52.850Z,80.25
2022-11-12T04:18:15.735Z,80.24
2022-11-12T04:19:35.701Z,80.33
2022-11-12T04:21:01.168Z,80.11
2022-11-12T04:22:06.376Z,80.26
2022-11-12T04:23:07.885Z,80.36
2022-11-12T04:24:29.471Z,80.28
2022-11-12T04:25:49.761Z,80.19
2022-11-12T04:26:55.009Z,80.25
2022-11-12T04:27:56.515Z,80.09
2022-11-12T04:29:17.063Z,80.16
2022-11-12T04:30:19.563Z,80.15
2022-11-12T04:31:21.121Z,80.25
2022-11-12T04:32:22.951Z,80.20
2022-11-12T04:33:25.640Z,80.14
2022-11-12T04:34:30.205Z,80.52
2022-11-12T04:35:32.755Z,80.52
2022-11-12T04:36:34.281Z,80.19
2022-11-12T04:37:47.465Z,80.20
2022-11-12T04:38:48.957Z,80.18
2022-11-12T04:39:52.047Z,80.17
2022-11-12T04:41:11.864Z,80.24
2022-11-12T04:42:33.193Z,80.48
2022-11-12T04:43:55.614Z,80.21
2022-11-12T04:45:01.366Z,80.21
2022-11-12T04:46:05.080Z,80.26
2022-11-12T04:47:07.964Z,80.20
2022-11-12T04:48:10.699Z,80.37
2022-11-12T04:49:12.238Z,80.33
2022-11-12T04:50:19.003Z,80.32
2022-11-12T04:51:39.144Z,80.36
2022-11-12T04:52:41.684Z,80.13
2022-11-12T04:53:43.255Z,80.29
2022-11-12T04:54:45.759Z,80.38
2022-11-12T04:55:49.654Z,80.53
2022-11-12T04:56:52.156Z,80.47
2022-11-12T04:58:00.417Z,80.59
2022-11-12T04:59:02.433Z,80.48
2022-11-12T05:00:06.384Z,80.37
2022-11-12T05:01:10.992Z,80.40
2022-11-12T05:02:13.624Z,80.52
2022-11-12T05:03:15.279Z,80.47
2022-11-12T05:04:17.994Z,80.65
2022-11-12T05:05:19.717Z,80.81
2022-11-12T05:06:39.778Z,80.55
2022-11-12T05:07:42.497Z,80.73
2022-11-12T05:08:44.009Z,80.79
2022-11-12T05:09:46.593Z,80.81
2022-11-12T05:10:48.122Z,80.79
2022-11-12T05:11:49.712Z,80.78
2022-11-12T05:12:52.264Z,80.80
2022-11-12T05:13:56.925Z,80.74
2022-11-12T05:14:59.422Z,80.77
2022-11-12T05:16:00.919Z,80.69
2022-11-12T05:17:03.831Z,80.92
2022-11-12T05:18:06.128Z,81.00
2022-11-12T05:19:08.669Z,80.92
2022-11-12T05:20:11.230Z,80.85
2022-11-12T05:21:31.477Z,80.77
2022-11-12T05:22:45.636Z,80.94
2022-11-12T05:23:52.182Z,81.13
2022-11-12T05:24:54.747Z,81.07
2022-11-12T05:25:56.416Z,80.93
2022-11-12T05:26:58.913Z,81.07
2022-11-12T05:28:00.450Z,81.33
2022-11-12T05:29:08.756Z,81.08
2022-11-12T05:30:11.722Z,81.21
2022-11-12T05:31:14.210Z,81.28
2022-11-12T05:32:16.431Z,80.88
2022-11-12T05:33:18.932Z,81.26
2022-11-12T05:34:23.081Z,81.28
2022-11-12T05:35:25.973Z,81.40
2022-11-12T05:36:27.573Z,81.31
2022-11-12T05:37:30.073Z,81.23
2022-11-12T05:38:31.625Z,81.20
2022-11-12T05:39:34.289Z,81.42
2022-11-12T05:40:35.814Z,81.17
2022-11-12T05:42:05.826Z,81.08
2022-11-12T05:43:00.741Z,81.68
2022-11-12T05:44:04.228Z,81.43
2022-11-12T05:45:09.448Z,81.42
2022-11-12T05:46:11.200Z,81.16
2022-11-12T05:47:13.743Z,81.33
2022-11-12T05:48:17.836Z,81.38
2022-11-12T05:49:24.229Z,81.43
2022-11-12T05:50:28.171Z,81.52
2022-11-12T05:51:47.267Z,81.30
2022-11-12T05:52:48.783Z,81.37
2022-11-12T05:53:51.254Z,81.59
2022-11-12T05:54:53.722Z,81.78
2022-11-12T05:56:01.177Z,81.71
2022-11-12T05:57:04.035Z,81.77
2022-11-12T05:58:06.365Z,81.45
2022-11-12T05:59:11.799Z,81.82
2022-11-12T06:00:14.126Z,81.83
2022-11-12T06:01:17.454Z,81.55
2022-11-12T06:02:19.007Z,81.69
2022-11-12T06:03:21.557Z,81.83
2022-11-12T06:04:24.444Z,81.85
2022-11-12T06:05:25.944Z,81.84
2022-11-12T06:06:28.497Z,81.91
2022-11-12T06:07:37.673Z,82.10
2022-11-12T06:08:40.280Z,81.92
2022-11-12T06:09:41.802Z,81.97
2022-11-12T06:10:48.546Z,82.19
2022-11-12T06:11:50.094Z,82.23
2022-11-12T06:12:52.929Z,82.10
2022-11-12T06:13:55.484Z,82.18
2022-11-12T06:14:58.463Z,81.96
2022-11-12T06:16:01.045Z,82.35
2022-11-12T06:17:02.678Z,82.09
2022-11-12T06:18:05.277Z,82.18
2022-11-12T06:19:07.993Z,82.41
2022-11-12T06:20:10.222Z,82.47
2022-11-12T06:21:27.557Z,82.34
2022-11-12T06:22:29.080Z,82.24
2022-11-12T06:23:31.574Z,82.20
2022-11-12T06:24:35.479Z,82.32
2022-11-12T06:25:37.393Z,82.75
2022-11-12T06:26:39.920Z,82.48
2022-11-12T06:27:41.860Z,82.62
2022-11-12T06:28:44.477Z,82.32
2022-11-12T06:29:46.083Z,82.66
2022-11-12T06:30:49.923Z,82.74
2022-11-12T06:31:51.670Z,82.55
2022-11-12T06:32:54.246Z,82.51
2022-11-12T06:33:56.824Z,82.76
2022-11-12T06:34:58.441Z,82.51
2022-11-12T06:36:03.857Z,82.53
2022-11-12T06:37:06.462Z,82.18
2022-11-12T06:38:08.197Z,82.49
2022-11-12T06:39:11.763Z,82.69
2022-11-12T06:40:13.499Z,82.44
2022-11-12T06:41:16.516Z,82.63
2022-11-12T06:42:18.479Z,82.65
2022-11-12T06:43:21.129Z,82.40
2022-11-12T06:44:23.749Z,82.79
2022-11-12T06:45:25.768Z,82.76
2022-11-12T06:46:29.560Z,82.92
2022-11-12T06:47:31.171Z,82.56
2022-11-12T06:48:33.677Z,82.74
2022-11-12T06:49:35.293Z,82.68
2022-11-12T06:50:37.888Z,82.51
2022-11-12T06:51:39.793Z,82.77
2022-11-12T06:52:42.271Z,82.71
2022-11-12T06:53:44.766Z,82.84
2022-11-12T06:54:46.320Z,82.76
2022-11-12T06:55:49.027Z,82.98
2022-11-12T06:56:51.654Z,82.94
2022-11-12T06:57:53.202Z,82.85
2022-11-12T06:58:55.875Z,83.07
2022-11-12T06:59:57.373Z,82.94
2022-11-12T07:01:11.004Z,82.67
2022-11-12T07:02:15.602Z,82.85
2022-11-12T07:03:17.150Z,83.07
2022-11-12T07:04:19.787Z,82.73
2022-11-12T07:05:21.303Z,82.89
2022-11-12T07:06:23.767Z,83.00
2022-11-12T07:07:25.310Z,82.91
2022-11-12T07:08:28.184Z,82.96
2022-11-12T07:09:29.996Z,82.78
2022-11-12T07:10:32.925Z,82.81
2022-11-12T07:11:35.444Z,82.92
2022-11-12T07:12:37.028Z,82.75
2022-11-12T07:13:40.472Z,82.74
2022-11-12T07:14:42.015Z,82.56
2022-11-12T07:15:44.519Z,82.96
2022-11-12T07:16:46.056Z,82.87
2022-11-12T07:17:49.877Z,82.92
2022-11-12T07:18:51.380Z,82.83
2022-11-12T07:19:53.935Z,82.71
2022-11-12T07:21:00.279Z,82.79
2022-11-12T07:22:03.179Z,82.80
2022-11-12T07:23:05.911Z,82.91
2022-11-12T07:24:08.359Z,82.69
2022-11-12T07:25:10.861Z,82.82
2022-11-12T07:26:15.043Z,82.71
2022-11-12T07:27:16.653Z,82.80
2022-11-12T07:28:19.131Z,82.87
2022-11-12T07:29:42.794Z,82.64
2022-11-12T07:30:43.323Z,82.74
2022-11-12T07:31:45.071Z,82.70
2022-11-12T07:32:51.840Z,82.80
2022-11-12T07:33:55.108Z,82.63
2022-11-12T07:34:57.607Z,82.76
2022-11-12T07:36:00.447Z,82.59
2022-11-12T07:37:03.354Z,82.14
2022-11-12T07:38:04.888Z,82.38
2022-11-12T07:39:08.540Z,82.38
2022-11-12T07:40:11.491Z,82.28
2022-11-12T07:41:16.115Z,82.73
2022-11-12T07:42:17.680Z,82.41
2022-11-12T07:43:20.156Z,82.25
2022-11-12T07:44:21.671Z,82.16
2022-11-12T07:45:24.185Z,82.48
2022-11-12T07:46:28.645Z,82.50
2022-11-12T07:47:30.770Z,82.43
2022-11-12T07:48:33.951Z,82.51
2022-11-12T07:49:37.042Z,82.23
2022-11-12T07:50:39.526Z,82.22
2022-11-12T07:51:41.071Z,82.24
2022-11-12T07:52:43.663Z,82.27
2022-11-12T07:53:46.210Z,82.36
2022-11-12T07:54:48.680Z,82.23
2022-11-12T07:55:54.719Z,82.26
2022-11-12T07:56:57.195Z,82.42
2022-11-12T07:57:59.133Z,82.29
2022-11-12T07:59:01.688Z,82.33
2022-11-12T08:00:04.257Z,82.23
2022-11-12T08:01:10.793Z,82.32
2022-11-12T08:02:12.441Z,82.43
2022-11-12T08:03:14.935Z,81.98
2022-11-12T08:04:16.860Z,82.11
2022-11-12T08:05:21.650Z,82.03
2022-11-12T08:06:23.666Z,82.03
2022-11-12T08:07:26.307Z,81.97
2022-11-12T08:08:28.567Z,82.04
2022-11-12T08:09:31.323Z,81.81
2022-11-12T08:10:32.848Z,81.73
2022-11-12T08:11:35.895Z,81.87
2022-11-12T08:12:37.420Z,81.81
2022-11-12T08:13:40.177Z,81.77
2022-11-12T08:14:41.729Z,81.72
2022-11-12T08:15:48.100Z,81.50
2022-11-12T08:16:54.529Z,81.53
2022-11-12T08:17:56.137Z,81.47
2022-11-12T08:18:58.787Z,81.47
2022-11-12T08:20:00.286Z,81.29
2022-11-12T08:21:06.004Z,81.24
2022-11-12T08:22:08.475Z,81.21
2022-11-12T08:23:10.315Z,81.13
2022-11-12T08:24:13.161Z,81.22
2022-11-12T08:25:14.923Z,81.23
2022-11-12T08:26:22.155Z,80.88
2022-11-12T08:27:24.844Z,80.96
2022-11-12T08:28:29.696Z,80.83
2022-11-12T08:29:32.391Z,80.97
2022-11-12T08:30:35.347Z,80.92
2022-11-12T08:31:37.920Z,80.57
2022-11-12T08:32:39.688Z,80.55
2022-11-12T08:33:43.128Z,80.52
2022-11-12T08:34:45.611Z,80.85
2022-11-12T08:35:47.156Z,80.66
2022-11-12T08:36:51.157Z,80.45
2022-11-12T08:37:52.810Z,80.52
2022-11-12T08:38:55.311Z,80.37
2022-11-12T08:39:56.826Z,80.17
2022-11-12T08:41:01.383Z,80.21
2022-11-12T08:42:04.027Z,80.18
2022-11-12T08:43:08.571Z,80.08
2022-11-12T08:44:11.084Z,79.86
2022-11-12T08:45:12.861Z,79.89
2022-11-12T08:46:15.483Z,79.93
2022-11-12T08:47:17.012Z,79.86
2022-11-12T08:48:19.492Z,79.74
2022-11-12T08:49:22.026Z,79.64
2022-11-12T08:50:23.530Z,79.71
2022-11-12T08:51:26.182Z,79.52
2022-11-12T08:52:29.116Z,79.54
2022-11-12T08:53:32.100Z,79.43
2022-11-12T08:54:33.629Z,79.45
2022-11-12T08:55:37.050Z,79.15
2022-11-12T08:56:39.649Z,79.19
2022-11-12T08:57:43.086Z,79.09
2022-11-12T08:58:44.667Z,78.97
2022-11-12T08:59:47.155Z,78.91
2022-11-12T09:00:50.812Z,79.04
2022-11-12T09:01:53.328Z,78.84
2022-11-12T09:02:54.911Z,78.77
2022-11-12T09:03:57.399Z,78.66
2022-11-12T09:04:58.953Z,78.53
2022-11-12T09:06:03.875Z,78.63
2022-11-12T09:07:09.351Z,78.51
2022-11-12T09:08:15.867Z,78.47
2022-11-12T09:09:18.431Z,78.31
2022-11-12T09:10:19.969Z,78.23
2022-11-12T09:11:22.550Z,78.23
2022-11-12T09:12:24.375Z,78.18
2022-11-12T09:13:26.981Z,78.07
2022-11-12T09:14:29.548Z,78.17
2022-11-12T09:15:37.591Z,78.02
2022-11-12T09:16:40.995Z,78.21
2022-11-12T09:17:42.534Z,77.82
2022-11-12T09:18:45.006Z,77.69
2022-11-12T09:19:46.538Z,77.64
2022-11-12T09:20:49.067Z,77.70
2022-11-12T09:21:50.592Z,77.39
2022-11-12T09:22:53.587Z,77.43
2022-11-12T09:23:56.723Z,77.48
2022-11-12T09:24:59.277Z,77.32
2022-11-12T09:26:02.225Z,77.17
2022-11-12T09:27:04.811Z,77.35
2022-11-12T09:28:08.272Z,77.33
2022-11-12T09:29:10.986Z,77.17
2022-11-12T09:30:13.063Z,77.23
2022-11-12T09:31:15.612Z,76.94
2022-11-12T09:32:17.192Z,77.20
2022-11-12T09:33:22.039Z,76.97
2022-11-12T09:34:23.522Z,76.96
2022-11-12T09:35:26.282Z,76.61
2022-11-12T09:36:28.769Z,76.84
2022-11-12T09:37:31.127Z,76.76
2022-11-12T09:38:33.969Z,76.47
2022-11-12T09:39:36.816Z,76.45
2022-11-12T09:40:48.606Z,76.38
2022-11-12T09:41:51.261Z,76.50
2022-11-12T09:42:53.278Z,76.37
2022-11-12T09:44:00.520Z,76.41
2022-11-12T09:45:06.648Z,76.33
2022-11-12T09:46:28.463Z,76.07
2022-11-12T09:47:37.198Z,76.02
2022-11-12T09:48:42.922Z,76.08
2022-11-12T09:49:50.294Z,76.11
2022-11-12T09:50:58.662Z,76.19
2022-11-12T09:52:05.703Z,75.97
2022-11-12T09:53:13.711Z,75.88
2022-11-12T09:54:23.352Z,75.83
2022-11-12T09:55:32.339Z,75.73
2022-11-12T09:56:34.961Z,75.75
2022-11-12T09:57:36.615Z,75.77
2022-11-12T09:58:39.153Z,75.66
2022-11-12T09:59:43.339Z,75.60
2022-11-12T10:00:55.633Z,75.47
2022-11-12T10:02:02.203Z,75.53
2022-11-12T10:03:09.334Z,75.52
2022-11-12T10:04:27.959Z,75.38
2022-11-12T10:05:35.260Z,75.24
2022-11-12T10:06:45.768Z,75.13
2022-11-12T10:08:01.060Z,74.90
2022-11-12T10:09:08.346Z,75.30
2022-11-12T10:10:16.045Z,74.93
2022-11-12T10:12:03.863Z,74.80
2022-11-12T10:13:18.564Z,74.88
2022-11-12T10:14:49.101Z,74.88
2022-11-12T10:16:18.051Z,74.65
2022-11-12T10:17:30.991Z,74.62
2022-11-12T10:18:48.217Z,74.71
2022-11-12T10:20:02.750Z,74.74
2022-11-12T10:21:14.912Z,74.70
2022-11-12T10:22:35.964Z,74.72
2022-11-12T10:23:42.402Z,74.59
2022-11-12T10:24:45.953Z,74.61
2022-11-12T10:25:51.379Z,74.74
2022-11-12T10:26:58.523Z,74.41
2022-11-12T10:28:05.301Z,74.23
2022-11-12T10:29:15.358Z,74.46
2022-11-12T10:30:19.056Z,74.41
2022-11-12T10:31:22.966Z,74.12
2022-11-12T10:32:24.502Z,74.28
2022-11-12T10:33:31.808Z,74.04
2022-11-12T10:34:35.827Z,74.09
2022-11-12T10:35:37.359Z,73.92
2022-11-12T10:36:44.429Z,73.72
2022-11-12T10:37:50.125Z,73.90
2022-11-12T10:38:54.480Z,73.66
2022-11-12T10:39:56.969Z,73.61
2022-11-12T10:40:58.502Z,73.84
2022-11-12T10:42:08.476Z,73.74
2022-11-12T10:43:21.801Z,73.58
2022-11-12T10:44:27.667Z,73.56
2022-11-12T10:45:29.658Z,73.53
2022-11-12T10:46:34.687Z,73.58
2022-11-12T10:47:42.666Z,73.39
2022-11-12T10:48:55.411Z,73.57
2022-11-12T10:50:07.105Z,73.68
2022-11-12T10:51:21.908Z,73.40
2022-11-12T10:52:24.518Z,73.43
2022-11-12T10:53:34.581Z,73.29
2022-11-12T10:54:37.488Z,73.30
2022-11-12T10:55:56.759Z,73.29
2022-11-12T10:57:19.814Z,73.15
2022-11-12T10:58:22.610Z,73.43
2022-11-12T10:59:25.185Z,73.41
2022-11-12T11:00:27.912Z,73.34
2022-11-12T11:01:45.365Z,73.34
2022-11-12T11:02:50.993Z,73.21
2022-11-12T11:03:57.790Z,73.21
2022-11-12T11:04:59.366Z,73.21
2022-11-12T11:06:04.155Z,73.06
2022-11-12T11:07:07.733Z,73.03
2022-11-12T11:08:11.280Z,73.11
2022-11-12T11:09:21.459Z,72.94
2022-11-12T11:10:26.541Z,72.77
2022-11-12T11:11:33.821Z,72.86
2022-11-12T11:12:36.655Z,72.85
2022-11-12T11:13:39.111Z,73.00
2022-11-12T11:14:44.331Z,72.92
2022-11-12T11:15:59.131Z,72.74
2022-11-12T11:17:08.180Z,72.99
2022-11-12T11:18:11.563Z,72.98
2022-11-12T11:19:14.106Z,72.89
2022-11-12T11:20:19.946Z,72.70
2022-11-12T11:21:44.603Z,72.83
2022-11-12T11:22:51.201Z,72.86
2022-11-12T11:23:57.044Z,72.57
2022-11-12T11:25:15.939Z,72.59
2022-11-12T11:26:30.466Z,72.75
2022-11-12T11:27:41.701Z,72.64
2022-11-12T11:28:51.666Z,72.78
2022-11-12T11:30:06.772Z,72.49
2022-11-12T11:31:20.398Z,72.36
2022-11-12T11:32:48.077Z,72.32
2022-11-12T11:33:56.896Z,72.33
2022-11-12T11:35:12.709Z,72.47
2022-11-12T11:36:23.041Z,72.23
2022-11-12T11:37:27.823Z,72.07
2022-11-12T11:38:42.204Z,71.85
2022-11-12T11:39:54.486Z,71.90
2022-11-12T11:41:12.643Z,71.51
2022-11-12T11:42:33.247Z,71.77
2022-11-12T11:43:48.627Z,71.59
2022-11-12T11:45:02.487Z,71.48
2022-11-12T11:46:16.605Z,71.27
2022-11-12T11:47:38.894Z,71.53
2022-11-12T11:49:05.792Z,71.29
2022-11-12T11:50:21.812Z,71.31
2022-11-12T11:51:39.170Z,71.52
2022-11-12T11:52:46.759Z,71.03
2022-11-12T11:54:01.547Z,70.76
2022-11-12T11:55:17.975Z,70.87
2022-11-12T11:56:26.949Z,70.86
2022-11-12T11:57:34.899Z,71.04
2022-11-12T11:58:57.527Z,70.59
2022-11-12T12:00:12.316Z,70.65
2022-11-12T12:01:22.785Z,70.40
2022-11-12T12:02:46.898Z,70.67
2022-11-12T12:04:20.522Z,70.68
2022-11-12T12:05:33.392Z,70.72
2022-11-12T12:06:42.729Z,70.63
2022-11-12T12:07:52.995Z,70.50
2022-11-12T12:09:16.915Z,70.77
2022-11-12T12:10:34.739Z,70.66
2022-11-12T12:11:56.231Z,70.70
2022-11-12T12:13:06.884Z,70.79
2022-11-12T12:14:31.434Z,70.79
2022-11-12T12:15:45.716Z,70.81
2022-11-12T12:16:57.585Z,70.70
2022-11-12T12:18:07.947Z,70.52
2022-11-12T12:19:26.604Z,70.66
2022-11-12T12:20:36.572Z,70.62
2022-11-12T12:21:44.598Z,70.64
2022-11-12T12:22:51.577Z,70.76
2022-11-12T12:23:58.341Z,70.54
2022-11-12T12:25:08.820Z,70.38
2022-11-12T12:26:15.717Z,70.52
2022-11-12T12:27:22.979Z,70.36
2022-11-12T12:28:33.142Z,70.45
2022-11-12T12:29:42.975Z,70.47
2022-11-12T12:30:49.339Z,70.51
2022-11-12T12:31:56.808Z,70.44
2022-11-12T12:33:05.053Z,70.40
2022-11-12T12:34:18.122Z,70.57
2022-11-12T12:35:24.835Z,70.36
2022-11-12T12:36:31.808Z,70.26
2022-11-12T12:37:38.469Z,70.17
2022-11-12T12:38:47.742Z,70.50
2022-11-12T12:39:56.518Z,70.04
2022-11-12T12:41:06.712Z,70.07
2022-11-12T12:42:17.061Z,70.08
2022-11-12T12:43:27.210Z,70.24
2022-11-12T12:44:50.124Z,70.22
2022-11-12T12:45:54.127Z,69.95
2022-11-12T12:46:58.494Z,69.95
2022-11-12T12:48:02.763Z,70.08
2022-11-12T12:49:07.916Z,69.96
2022-11-12T12:50:15.103Z,69.88
2022-11-12T12:51:18.012Z,69.96
2022-11-12T12:52:19.665Z,69.86
2022-11-12T12:53:33.958Z,69.78
2022-11-12T12:54:59.416Z,69.83
2022-11-12T12:56:05.621Z,69.83
2022-11-12T12:57:29.671Z,69.78
2022-11-12T12:58:34.475Z,69.82
2022-11-12T12:59:36.005Z,69.76
2022-11-12T13:00:40.759Z,69.50
2022-11-12T13:01:43.710Z,69.66
2022-11-12T13:02:46.323Z,69.53
2022-11-12T13:03:53.658Z,69.46
2022-11-12T13:04:58.199Z,69.73
2022-11-12T13:06:15.070Z,69.50
2022-11-12T13:07:17.822Z,69.41
2022-11-12T13:08:23.704Z,69.36
2022-11-12T13:09:28.391Z,69.62
2022-11-12T13:10:55.925Z,69.89
2022-11-12T13:12:16.421Z,69.70
2022-11-12T13:13:32.658Z,69.65
2022-11-12T13:15:08.690Z,69.54
2022-11-12T13:16:11.354Z,69.74
2022-11-12T13:17:44.986Z,69.60
2022-11-12T13:19:11.271Z,69.74
2022-11-12T13:20:30.865Z,69.69
2022-11-12T13:21:33.358Z,69.64
2022-11-12T13:22:49.866Z,69.58
2022-11-12T13:24:08.911Z,69.42
2022-11-12T13:25:26.695Z,69.69
2022-11-12T13:26:54.228Z,69.72
2022-11-12T13:28:06.803Z,69.67
2022-11-12T13:29:43.053Z,69.81
2022-11-12T13:31:03.685Z,69.50
2022-11-12T13:32:35.214Z,69.80
2022-11-12T13:33:39.091Z,69.57
2022-11-12T13:34:40.688Z,69.96
2022-11-12T13:35:43.290Z,69.34
2022-11-12T13:36:55.998Z,69.38
2022-11-12T13:38:01.719Z,69.33
2022-11-12T13:39:15.346Z,69.18
2022-11-12T13:40:25.140Z,69.50
2022-11-12T13:41:57.403Z,69.60
2022-11-12T13:43:06.835Z,69.61
2022-11-12T13:44:14.351Z,69.54
2022-11-12T13:45:18.015Z,69.39
2022-11-12T13:46:28.532Z,69.17
2022-11-12T13:47:32.827Z,69.29
2022-11-12T13:48:41.358Z,69.25
2022-11-12T13:49:45.036Z,68.92
2022-11-12T13:50:52.210Z,68.88
2022-11-12T13:51:56.577Z,69.29
2022-11-12T13:52:59.301Z,69.01
2022-11-12T13:54:02.444Z,68.94
2022-11-12T13:55:07.070Z,68.67
2022-11-12T13:56:11.841Z,68.68
2022-11-12T13:57:33.038Z,69.01
2022-11-12T13:58:35.876Z,68.74
2022-11-12T13:59:38.528Z,68.91
2022-11-12T14:00:41.367Z,68.79
2022-11-12T14:01:43.591Z,68.93
2022-11-12T14:02:49.903Z,69.00
2022-11-12T14:03:54.440Z,68.69
2022-11-12T14:04:57.240Z,68.65
2022-11-12T14:06:06.031Z,68.75